首页
METAR-TAF:

METAR-TAF

机场 :

卡迪拉克, 密歇根州, 美国

纬度: 44-17N, 经度: 085-25W, 海拔: 398米

当前天气观测

该预报发布于23分钟前的09:16 UTC
静风
温度 -11°C
湿度 85%
气压 1030 hPa
能見度: 16.1公里
阴天层高于9000英尺

METAR: KCAD 120916Z AUTO 00000KT 10SM OVC090 M11/M13 A3041 RMK AO2 T11171137

时间: 04:39 (09:39 UTC)


TAF: 丢失

超过4000个机场的气象观测和天气预报(METAR&TAF报告)。

可查询的气象台以黄色和红色小点在地图上表示。

将鼠标移到小点上方,可查看气象台名称。

然后点击查看天气观测和预报。

如需切换地图:点击带黑十字的绿色按钮放大地图;点击带横线的绿色按钮缩小地图;或者点击绿色箭头查看邻近地区的地图。


METAR-TAF: